Time;durP1;ratioP1;P1;durP2;ratioP2;P2;SDS_P1;SDS_P2;PMS_P1;PMS_P2;Temp;Humidity;BMP_temperature;BMP_pressure;BME280_temperature;BME280_humidity;BME280_pressure;Samples;Min_cycle;Max_cycle;Signal;HPM_P1;HPM_P2
2022/11/05 00:09:28;;;;;;;2.28;0.95;;;;;;;17.76;94.04;101044.50;20798884;28;20053;-87
2022/11/05 00:25:56;;;;;;;1.38;0.68;;;;;;;17.74;93.84;101083.31;20794611;28;20064;-87
2022/11/05 00:35:58;;;;;;;2.10;1.15;;;;;;;17.58;93.75;101070.31;20793496;28;20050;-86
2022/11/05 00:45:59;;;;;;;1.45;0.68;;;;;;;17.62;93.78;101077.13;20793488;28;20383;-87
2022/11/05 00:56:01;;;;;;;1.25;0.70;;;;;;;17.40;93.66;101050.19;20793372;28;20449;-86
2022/11/05 01:06:11;;;;;;;1.25;0.80;;;;;;;17.62;93.77;101071.75;20792166;28;20136;-86
2022/11/05 01:16:13;;;;;;;0.70;0.50;;;;;;;17.69;93.51;101089.94;20792311;28;20081;-87
2022/11/05 01:26:14;;;;;;;1.40;0.65;;;;;;;17.38;93.52;101043.25;20792092;28;20111;-86
2022/11/05 01:36:16;;;;;;;1.15;0.70;;;;;;;17.67;93.49;101086.53;20806207;28;20053;-86
2022/11/05 01:46:22;;;;;;;1.30;0.70;;;;;;;17.33;93.51;101032.03;20805726;28;20473;-87
2022/11/05 01:56:28;;;;;;;2.35;0.63;;;;;;;17.56;93.52;101094.69;20805668;28;20072;-87
2022/11/05 02:06:31;;;;;;;1.37;0.67;;;;;;;17.56;93.41;101077.66;20804556;28;20395;-86
2022/11/05 02:16:47;;;;;;;0.90;0.50;;;;;;;17.60;93.34;101088.03;20787672;28;20053;-87
2022/11/05 02:26:48;;;;;;;;;;;;;;;17.64;93.33;101099.38;20803655;28;20502;-87
2022/11/05 02:36:53;;;;;;;0.95;0.60;;;;;;;17.63;93.29;101108.44;20804637;28;19924;-86
2022/11/05 02:47:02;;;;;;;0.80;0.50;;;;;;;17.34;93.31;101055.25;20801980;28;20045;-86
2022/11/05 02:57:03;;;;;;;0.85;0.50;;;;;;;17.62;93.37;101104.03;20802082;28;20049;-87
2022/11/05 03:07:30;;;;;;;0.65;0.50;;;;;;;17.62;93.33;101090.59;20799586;28;20054;-86
2022/11/05 03:17:49;;;;;;;0.70;0.60;;;;;;;17.61;93.21;101078.13;20800961;28;20057;-86
2022/11/05 03:27:59;;;;;;;1.15;0.55;;;;;;;17.27;93.06;101032.53;20799851;28;20045;-87
2022/11/05 03:38:04;;;;;;;1.25;1.08;;;;;;;17.60;93.14;101093.44;20814240;28;20042;-87
2022/11/05 03:48:07;;;;;;;1.05;0.40;;;;;;;17.23;93.09;101032.81;20780489;28;20049;-87
2022/11/05 03:58:09;;;;;;;0.40;0.40;;;;;;;17.32;92.91;101051.84;20795495;28;20053;-87
2022/11/05 04:18:30;;;;;;;2.10;0.50;;;;;;;16.97;92.92;101018.78;20795616;28;20049;-87
2022/11/05 04:30:17;;;;;;;1.20;0.50;;;;;;;17.60;93.02;101124.88;20795905;28;20137;-87
2022/11/05 04:38:53;;;;;;;0.40;0.40;;;;;;;17.58;92.95;101110.69;20794489;28;20437;-87
2022/11/05 04:48:55;;;;;;;1.33;0.43;;;;;;;17.20;92.77;101056.41;20795036;28;20049;-86
2022/11/05 04:58:56;;;;;;;0.50;0.40;;;;;;;17.58;92.79;101124.13;20794557;28;20049;-86
2022/11/05 05:08:58;;;;;;;0.50;0.43;;;;;;;17.11;92.47;101055.31;20802277;28;20060;-86
2022/11/05 05:18:59;;;;;;;0.55;0.45;;;;;;;17.57;92.73;101133.19;20810460;28;20465;-86
2022/11/05 05:29:01;;;;;;;1.17;0.40;;;;;;;17.20;92.45;101084.16;20809446;28;20498;-86
2022/11/05 05:39:06;;;;;;;0.50;0.40;;;;;;;17.33;92.54;101104.69;20797840;28;20051;-87
2022/11/05 05:49:10;;;;;;;0.65;0.40;;;;;;;17.57;91.97;101149.34;20795444;28;20057;-89
2022/11/05 05:59:13;;;;;;;2.83;0.70;;;;;;;17.44;94.73;101119.91;20744652;28;20057;-89
2022/11/05 06:09:15;;;;;;;2.28;0.60;;;;;;;17.72;97.09;101155.28;20777285;28;20136;-87
2022/11/05 06:19:16;;;;;;;2.78;0.50;;;;;;;17.76;96.60;101165.69;20816061;28;20073;-86
2022/11/05 06:29:17;;;;;;;3.00;0.80;;;;;;;17.81;95.73;101162.59;20810224;28;20052;-86
2022/11/05 06:39:19;;;;;;;1.38;0.57;;;;;;;17.27;94.57;101072.91;20797780;28;20835;-86
2022/11/05 06:49:23;;;;;;;0.77;0.50;;;;;;;17.65;93.31;101145.03;20741772;28;20521;-85
2022/11/05 06:59:25;;;;;;;0.80;0.50;;;;;;;17.39;92.50;101106.84;20691744;28;20918;-89
2022/11/05 07:09:27;;;;;;;3.00;0.90;;;;;;;17.88;94.75;101195.25;20692965;28;20435;-89
2022/11/05 07:19:28;;;;;;;2.63;0.82;;;;;;;17.72;97.07;101196.56;20723962;28;20061;-86
2022/11/05 07:29:30;;;;;;;2.42;0.60;;;;;;;17.60;99.36;101149.09;20773556;28;20084;-87
2022/11/05 07:39:31;;;;;;;3.20;1.08;;;;;;;17.91;100.00;101197.69;20769920;28;20054;-83
2022/11/05 07:49:32;;;;;;;1.85;0.60;;;;;;;17.97;100.00;101200.72;20760771;28;20057;-86
2022/11/05 07:59:34;;;;;;;8.15;1.15;;;;;;;18.03;100.00;101212.84;20766102;28;20049;-87
2022/11/05 08:09:35;;;;;;;2.75;0.80;;;;;;;18.11;100.00;101220.28;20759318;28;20069;-87
2022/11/05 08:19:37;;;;;;;8.57;1.10;;;;;;;18.03;100.00;101207.47;20748203;28;20567;-88
2022/11/05 08:29:38;;;;;;;2.92;1.10;;;;;;;18.11;100.00;101221.13;20742577;28;20049;-86
2022/11/05 08:39:40;;;;;;;3.53;1.00;;;;;;;17.20;100.00;101076.06;20784535;28;22194;-86
2022/11/05 08:49:41;;;;;;;3.58;0.80;;;;;;;18.06;100.00;101239.53;20767638;28;20433;-94
2022/11/05 08:59:42;;;;;;;2.50;0.82;;;;;;;18.05;97.91;101237.81;20776218;28;20489;-87
2022/11/05 09:09:44;;;;;;;2.55;0.55;;;;;;;17.85;97.96;101192.81;20760602;28;20124;-84
2022/11/05 09:19:47;;;;;;;1.08;0.50;;;;;;;17.98;98.29;101240.16;20765759;28;20663;-83
2022/11/05 09:29:49;;;;;;;1.10;0.70;;;;;;;17.94;99.06;101235.13;20777235;28;20045;-83
2022/11/05 09:39:50;;;;;;;2.17;0.70;;;;;;;17.80;99.87;101223.69;20773454;28;20045;-84
2022/11/05 09:49:54;;;;;;;1.70;0.70;;;;;;;17.87;100.00;101242.03;20775306;28;20064;-83
2022/11/05 10:00:01;;;;;;;2.58;0.68;;;;;;;17.78;100.00;101233.75;20789528;28;20085;-83
2022/11/05 10:10:22;;;;;;;1.20;0.80;;;;;;;17.82;100.00;101248.66;20771766;28;20081;-83
2022/11/05 10:20:32;;;;;;;2.20;0.50;;;;;;;17.56;100.00;101221.19;20757551;28;20042;-84
2022/11/05 10:30:34;;;;;;;1.35;0.60;;;;;;;17.76;100.00;101259.94;20771350;28;20046;-83
2022/11/05 10:40:56;;;;;;;0.90;0.70;;;;;;;17.54;100.00;101225.84;20769221;28;20571;-83
2022/11/05 10:50:58;;;;;;;1.40;0.55;;;;;;;17.76;100.00;101251.88;20774505;28;20049;-84
2022/11/05 11:01:09;;;;;;;1.20;0.40;;;;;;;17.77;100.00;101250.88;20780293;28;20108;-82
2022/11/05 11:11:23;;;;;;;0.50;0.30;;;;;;;17.76;100.00;101265.31;20782122;28;20096;-82
2022/11/05 11:21:25;;;;;;;1.95;1.27;;;;;;;17.46;100.00;101217.56;20762017;28;20072;-82
2022/11/05 11:31:29;;;;;;;1.05;0.50;;;;;;;17.75;100.00;101278.91;20766167;28;20045;-83
2022/11/05 11:41:34;;;;;;;2.53;0.50;;;;;;;17.74;100.00;101269.13;20766521;28;20506;-83
2022/11/05 11:51:43;;;;;;;0.85;0.75;;;;;;;17.74;100.00;101272.69;20777794;28;20050;-83
2022/11/05 12:02:28;;;;;;;2.85;0.50;;;;;;;17.72;100.00;101269.25;20767793;28;20124;-83
2022/11/05 12:12:33;;;;;;;0.45;0.40;;;;;;;17.71;100.00;101264.84;20755262;28;20132;-85
2022/11/05 12:22:52;;;;;;;0.67;0.50;;;;;;;17.72;100.00;101257.63;20758542;28;20049;-85
2022/11/05 12:32:57;;;;;;;23.50;6.78;;;;;;;17.69;100.00;101243.44;20750781;28;20386;-82
2022/11/05 12:43:29;;;;;;;23.43;5.77;;;;;;;17.51;100.00;101209.97;20749777;28;20534;-85
2022/11/05 12:53:37;;;;;;;15.52;5.10;;;;;;;17.74;100.00;101261.91;20760100;28;20049;-86
2022/11/05 13:03:44;;;;;;;11.80;4.25;;;;;;;17.73;100.00;101249.44;20736884;28;20060;-85
2022/11/05 13:13:57;;;;;;;8.75;3.10;;;;;;;17.71;98.21;101232.53;20750856;28;20465;-86
2022/11/05 13:24:16;;;;;;;8.75;2.90;;;;;;;17.52;95.35;101188.28;20754708;28;20065;-85
2022/11/05 13:34:17;;;;;;;6.07;2.53;;;;;;;17.86;94.88;101233.09;20711894;28;20415;-87
2022/11/05 13:44:53;;;;;;;5.32;2.05;;;;;;;17.92;93.80;101220.94;20730517;28;20053;-87
2022/11/05 13:55:06;;;;;;;6.47;2.15;;;;;;;17.96;92.37;101228.66;20769609;28;20053;-90
2022/11/05 14:05:24;;;;;;;4.80;1.80;;;;;;;17.98;91.61;101221.31;20761049;28;20157;-88
2022/11/05 14:15:27;;;;;;;4.70;1.90;;;;;;;17.86;91.77;101183.75;20763713;28;20049;-88
2022/11/05 14:25:28;;;;;;;5.60;1.65;;;;;;;18.04;91.86;101193.00;20765096;28;20497;-84
2022/11/05 14:35:36;;;;;;;5.45;1.95;;;;;;;17.98;91.75;101194.38;20767215;28;20636;-87
2022/11/05 14:45:40;;;;;;;5.47;2.33;;;;;;;17.92;91.79;101194.88;20754687;28;20072;-88
2022/11/05 14:55:42;;;;;;;3.03;1.60;;;;;;;17.86;92.15;101197.22;20778531;28;20050;-89
2022/11/05 15:05:47;;;;;;;3.38;1.52;;;;;;;17.83;92.39;101207.28;20742060;28;20059;-85
2022/11/05 15:15:49;;;;;;;3.60;1.60;;;;;;;17.81;92.68;101220.00;20754994;28;20383;-86
2022/11/05 15:26:06;;;;;;;3.65;1.70;;;;;;;17.78;93.34;101209.50;20749844;28;20060;-83
2022/11/05 15:36:10;;;;;;;4.00;1.83;;;;;;;17.78;94.24;101209.50;20750887;28;21868;-82
2022/11/05 15:46:18;;;;;;;2.83;1.45;;;;;;;17.77;95.01;101207.78;20744647;28;20045;-90
2022/11/05 15:56:44;;;;;;;2.00;1.17;;;;;;;17.76;94.96;101215.97;20737920;28;20057;-86
2022/11/05 16:06:51;;;;;;;3.92;1.70;;;;;;;17.75;94.89;101235.81;20751083;28;20056;-85
2022/11/05 16:16:52;;;;;;;2.53;1.40;;;;;;;17.73;94.81;101221.63;20760528;28;20056;-89
2022/11/05 16:26:56;;;;;;;2.40;1.17;;;;;;;17.52;94.75;101184.75;20736460;28;20057;-86
2022/11/05 16:37:11;;;;;;;3.10;1.30;;;;;;;17.69;94.60;101221.03;20737674;28;20414;-86
2022/11/05 16:47:13;;;;;;;2.70;1.00;;;;;;;17.39;94.32;101160.69;20677758;28;20060;-87
2022/11/05 16:57:27;;;;;;;4.35;1.55;;;;;;;17.58;94.23;101181.53;20749967;28;20680;-86
2022/11/05 17:07:28;;;;;;;2.67;1.20;;;;;;;17.43;94.28;101167.50;20762792;28;20049;-86
2022/11/05 17:17:30;;;;;;;3.88;1.02;;;;;;;17.64;94.36;101201.69;20767038;28;20057;-89
2022/11/05 17:27:31;;;;;;;2.65;1.60;;;;;;;17.64;94.63;101201.69;20755980;28;20049;-87
2022/11/05 17:37:33;;;;;;;1.83;1.25;;;;;;;17.62;94.55;101188.38;20765486;28;20053;-85
2022/11/05 17:47:34;;;;;;;2.88;1.33;;;;;;;17.62;94.66;101187.50;20763306;28;20556;-83
2022/11/05 17:57:36;;;;;;;2.40;1.10;;;;;;;17.60;94.64;101184.97;20771980;28;20057;-84
2022/11/05 18:07:37;;;;;;;2.85;1.63;;;;;;;17.60;94.71;101194.84;20788040;28;20049;-84
2022/11/05 18:17:39;;;;;;;1.85;1.20;;;;;;;17.60;94.68;101193.03;20806329;28;20498;-84
2022/11/05 18:27:41;;;;;;;2.08;1.35;;;;;;;17.10;94.62;101120.88;20777066;28;20056;-87
2022/11/05 18:37:42;;;;;;;1.85;1.25;;;;;;;17.59;94.77;101177.88;20781711;28;20061;-86
2022/11/05 18:47:44;;;;;;;2.15;1.40;;;;;;;17.20;94.69;101121.81;20797919;28;20076;-85
2022/11/05 18:57:45;;;;;;;1.90;0.90;;;;;;;16.94;94.65;101064.75;20796687;28;20520;-85
2022/11/05 19:07:47;;;;;;;1.65;1.10;;;;;;;17.58;94.63;101159.13;20796852;28;20045;-86
2022/11/05 19:17:48;;;;;;;1.52;1.05;;;;;;;17.57;94.79;101163.69;20782812;28;20107;-86
2022/11/05 19:27:50;;;;;;;1.50;1.00;;;;;;;17.37;94.65;101125.81;20799342;28;20529;-86
2022/11/05 19:37:52;;;;;;;1.90;1.00;;;;;;;17.56;94.69;101142.25;20797130;28;20044;-86
2022/11/05 19:47:53;;;;;;;3.42;1.33;;;;;;;17.54;94.55;101140.56;20795087;28;20045;-85
2022/11/05 19:57:55;;;;;;;2.20;1.02;;;;;;;17.55;94.53;101136.03;20797876;28;20053;-85
2022/11/05 20:07:56;;;;;;;2.40;1.08;;;;;;;17.38;94.46;101087.16;20794646;28;20450;-85
2022/11/05 20:17:58;;;;;;;1.67;0.90;;;;;;;17.53;94.68;101119.16;20796739;28;20118;-86
2022/11/05 20:27:59;;;;;;;1.35;0.82;;;;;;;17.28;94.47;101083.53;20796600;28;20050;-86
2022/11/05 20:38:01;;;;;;;1.83;0.88;;;;;;;17.35;94.52;101097.31;20793777;28;20512;-85
2022/11/05 20:48:03;;;;;;;1.60;1.00;;;;;;;17.47;94.48;101104.38;20794557;28;20491;-86
2022/11/05 20:58:04;;;;;;;1.70;1.00;;;;;;;17.21;94.70;101050.88;20792109;28;20052;-86
2022/11/05 21:08:06;;;;;;;2.22;1.17;;;;;;;17.41;94.49;101091.44;20792592;28;20127;-86
2022/11/05 21:18:07;;;;;;;1.85;1.10;;;;;;;17.51;94.57;101110.34;20792205;28;20088;-85
2022/11/05 21:28:10;;;;;;;2.22;1.00;;;;;;;17.41;94.51;101088.72;20791897;28;20045;-86
2022/11/05 21:38:14;;;;;;;2.00;1.00;;;;;;;17.50;94.52;101101.41;20792415;28;20049;-86
2022/11/05 21:48:16;;;;;;;2.38;0.90;;;;;;;17.49;94.62;101086.25;20797582;28;20053;-85
2022/11/05 22:08:38;;;;;;;1.42;0.82;;;;;;;17.48;94.63;101064.84;20806785;28;20455;-86
2022/11/05 22:18:39;;;;;;;1.75;0.88;;;;;;;17.47;94.55;101061.31;20803353;28;20840;-85
2022/11/05 22:28:41;;;;;;;1.42;0.90;;;;;;;16.84;94.50;100935.59;20787156;28;20099;-85
2022/11/05 22:38:42;;;;;;;2.35;1.20;;;;;;;17.21;94.55;100986.31;20803901;28;20050;-85
2022/11/05 22:48:44;;;;;;;1.17;0.88;;;;;;;17.16;94.30;100985.84;20803067;28;20045;-86
2022/11/05 22:58:46;;;;;;;1.48;0.80;;;;;;;17.16;94.33;100993.06;20801716;28;20133;-86
2022/11/05 23:29:28;;;;;;;1.52;0.77;;;;;;;17.25;94.20;100977.03;20800279;28;20072;-86
2022/11/05 23:39:30;;;;;;;1.25;0.82;;;;;;;17.45;94.30;100993.28;20799685;28;20171;-86
2022/11/05 23:49:32;;;;;;;0.85;0.60;;;;;;;17.45;94.31;100989.72;20796750;28;20046;-86
2022/11/05 23:59:33;;;;;;;0.70;0.68;;;;;;;17.46;94.12;100986.09;20780134;28;20041;-86
